Hit Tracker is now ESPN Home Run Tracker! Hit Tracker founder Greg Rybarczyk is now collaborating with the ESPN Stats & Information Group to continue tracking all MLB home runs, and helping baseball fans know "How Far It Really Went!™" Please credit any information on this site to ESPN Stats & Information Group. For more information and analysis on home runs, please contact founder Greg Rybarczyk. E-Mail ESPN Home Run Tracker
Main Page | Ballparks | Park Overlays | Glossary | Highlight Homers | Feedback | Bio | 3 Types of HR's | AAA Home Run Derby Last Updated: August 3, 2015, 10:47 pm PST
Welcome to the ESPN Home Run Tracker! Check out the ESPN MLB Scoreboard throughout the 2015 season! Contact us at grybar@hittrackeronline.com.
Season:
Ballpark detail for Globe Life Park in Arlington
Ballpark # of Home Runs HR per game Avg.
True
Distance
Avg.
Speed
Off
Bat
Avg.
Std.
Dist.
Globe Life Park in Arlington 108 2.16 402 104.3 400.6

Scatter Plot of Home Runs Globe Life Park in Arlington
 Overlay Ballpark:
Without range rings   With range rings

2015 Season Home Runs for Globe Life Park in Arlington
Click headers to sort
Date Video Path Hitter Hitter
Team
Pitcher Pitcher
Team
INN Ballpark Type/
Luck
 ^
True
Dist.
Speed
Off
Bat
Elev.
Angle
Horiz.
Angle
Apex Impact Due To: Std.
Dist.
#
Parks
Wind Temp. Alt.
05/14/15 Video View Hosmer, Eric KC Freeman, Sam TEX 6 Globe Life P... PL 427 107.5 22.7 95.5 74 0 1 0 427 26
05/15/15 Video View Fielder, Prince TEX Chen, Bruce CLE 1 Globe Life P... PL 427 106.4 26.1 80.3 91 -2 0 1 428 30
05/15/15 Video View Beltre, Adrian TEX Chen, Bruce CLE 1 Globe Life P... PL 428 108.9 20.8 92.2 67 0 0 0 428 25
05/15/15 Video View Hayes, Brett CLE Fujikawa, Kyuji TEX 6 Globe Life P... PL 399 102.6 31.3 109.1 105 0 0 1 397 30
05/16/15 Video View Field, Tommy TEX Salazar, Danny CLE 2 Globe Life P... PL 415 106.5 25.4 104.3 80 -2 1 1 415 30
05/16/15 Video View Chirinos, Robinson TEX Atchison, Scott CLE 8 Globe Life P... PL 411 105.5 28.8 108.1 97 -5 1 2 413 30
05/11/15 Video View Field, Tommy TEX Pino, Yohan KC 7 Globe Life P... PL 428 108.5 22.0 95.6 72 0 0 0 428 26
05/11/15 Video View Fielder, Prince TEX Morales, Franklin KC 8 Globe Life P... PL 425 105.0 24.5 87.1 83 0 0 1 424 26
05/12/15 Video View Gordon, Alex KC Pimentel, Stolmy TEX 10 Globe Life P... PL 354 96.8 31.2 59.1 82 -1 0 1 354 28
05/13/15 Video View Choo, Shin-Soo TEX Ventura, Yordano KC 1 Globe Life P... PL 384 101.9 28.2 67.0 81 -1 0 1 384 30
05/13/15 Video View Fielder, Prince TEX Ventura, Yordano KC 2 Globe Life P... PL 449 108.2 28.1 82.8 112 2 0 2 445 30
04/28/15 Video View Weeks, Rickie SEA Detwiler, Ross TEX 4 Globe Life P... PL 408 108.7 22.9 105.7 67 0 -1 1 408 30
05/01/15 Video View Blanks, Kyle TEX Kazmir, Scott OAK 2 Globe Life P... PL 388 104.1 29.9 121.3 87 -3 1 1 388 30
05/01/15 Video View Fielder, Prince TEX Kazmir, Scott OAK 4 Globe Life P... PL 440 108.1 23.5 92.4 83 0 1 1 439 29
05/02/15 Video View Blanks, Kyle TEX Pomeranz, Drew OAK 6 Globe Life P... PL 393 104.8 34.1 114.5 122 -5 1 3 394 30
05/02/15 Video View Reddick, Josh OAK Bass, Anthony TEX 7 Globe Life P... PL 376 99.2 32.7 66.5 101 0 1 2 374 29
05/03/15 Video View Reddick, Josh OAK Mendez, Roman TEX 9 Globe Life P... PL 440 107.3 25.6 84.4 93 -1 1 0 439 29
04/12/15 Video View Marisnick, Jake HOU Lewis, Colby TEX 2 Globe Life P... PL 392 103.4 30.4 116.4 93 -2 1 1 392 30
04/13/15 Video View Cowgill, Collin LAA Detwiler, Ross TEX 5 Globe Life P... PL 427 108.4 21.7 94.4 71 0 0 0 427 27
04/14/15 Video View Chirinos, Robinson TEX Alvarez, Jose LAA 6 Globe Life P... PL 422 102.9 30.2 97.9 110 7 -2 2 415 29
04/15/15 Video View Rosales, Adam TEX Wilk, Adam LAA 9 Globe Life P... PL 415 104.6 25.4 100.7 81 1 1 1 413 30
05/28/15 Video View Ramirez, Hanley BOS Martinez, Nick TEX 6 Globe Life P... PL 422 108.2 22.8 99.5 72 0 1 0 422 30
05/29/15 Video View Hamilton, Josh TEX Wright, Steven BOS 2 Globe Life P... PL 388 107.6 24.7 59.9 65 0 1 1 387 30
05/29/15 Video View Hamilton, Josh TEX Wright, Steven BOS 4 Globe Life P... PL 370 100.8 27.3 62.5 71 0 1 1 368 25
06/02/15 Video View Corporan, Carlos TEX Noesi, Hector CHW 8 Globe Life P... PL 378 101.0 27.3 67.3 75 -1 1 1 377 26
06/03/15 Video View Abreu, Jose CHW Martinez, Nick TEX 2 Globe Life P... PL 426 104.0 28.6 92.3 108 -5 3 1 427 25
06/03/15 Video View Flowers, Tyler CHW Scheppers, Tanner TEX 7 Globe Life P... PL 413 106.9 23.6 102.5 71 0 0 0 412 30
06/12/15 Video View Andrus, Elvis TEX Milone, Tommy MIN 7 Globe Life P... PL 376 100.1 33.4 119.2 101 0 3 2 371 30
06/12/15 Video View Dozier, Brian MIN Scheppers, Tanner TEX 8 Globe Life P... PL 393 103.6 26.4 110.7 75 -1 1 1 391 30
06/14/15 Video View Dozier, Brian MIN Martinez, Nick TEX 1 Globe Life P... PL 419 103.6 27.3 96.0 97 -4 2 1 420 30
06/14/15 Video View Gallo, Joey TEX Hughes, Phil MIN 2 Globe Life P... PL 423 104.4 26.0 83.6 90 0 2 1 421 25
06/14/15 Video View Martin, Leonys TEX Hughes, Phil MIN 2 Globe Life P... PL 424 104.2 28.3 83.3 106 -4 2 1 424 26
06/15/15 Video View Grandal, Yasmani LAD Scheppers, Tanner TEX 8 Globe Life P... PL 432 107.5 23.4 84.5 79 0 0 1 431 26
06/16/15 Video View Turner, Justin LAD Gonzalez, Chi Chi TEX 9 Globe Life P... PL 406 106.2 26.9 112.0 82 -1 1 1 405 30
06/16/15 Video View Chirinos, Robinson TEX Ravin, Josh LAD 9 Globe Life P... PL 413 104.9 24.2 98.7 76 0 1 1 412 28
06/23/15 Video View Odor, Rougned TEX Chavez, Jesse OAK 5 Globe Life P... PL 377 103.1 25.0 66.4 65 0 1 1 375 24
06/23/15 Video View Zobrist, Ben OAK Kela, Keone TEX 7 Globe Life P... PL 409 103.1 25.6 80.7 81 0 1 1 407 26
06/24/15 Video View Lawrie, Brett OAK Rodriguez, Wandy TEX 1 Globe Life P... PL 424 104.1 28.3 96.2 104 -5 3 1 424 29
06/24/15 Video View Phegley, Josh OAK Rodriguez, Wandy TEX 2 Globe Life P... PL 422 104.1 25.5 86.8 88 -1 0 1 422 25
06/25/15 Video View Moreland, Mitch TEX Gray, Sonny OAK 4 Globe Life P... PL 412 102.3 26.8 97.9 87 1 2 1 409 22
07/05/15 Video View Fielder, Prince TEX Wilson, C.J. LAA 1 Globe Life P... PL 386 103.0 28.5 63.9 82 -5 2 1 387 30
07/05/15 Video View Odor, Rougned TEX Gott, Trevor LAA 7 Globe Life P... PL 416 104.9 24.4 82.0 78 0 1 0 415 27
07/08/15 Video View Pollock, A.J. ARI Harrison, Matt TEX 2 Globe Life P... PL 413 105.7 26.1 106.6 81 1 1 1 410 30
07/08/15 Video View Castillo, Welington ARI Bass, Anthony TEX 5 Globe Life P... PL 379 97.5 32.5 72.1 102 3 2 1 372 18
07/10/15 Video View Beltre, Adrian TEX Kennedy, Ian SD 4 Globe Life P... PL 379 107.2 24.3 124.0 60 0 2 1 376 30
07/10/15 Video View Upton Jr., Melvin SD Rodriguez, Wandy TEX 6 Globe Life P... PL 387 101.8 34.6 109.7 123 -5 4 3 384 30
07/11/15 Video View Kemp, Matt SD Lewis, Colby TEX 3 Globe Life P... PL 395 100.7 30.7 102.6 105 -7 3 1 397 30
07/11/15 Video View Moreland, Mitch TEX Shields, James SD 6 Globe Life P... PL 405 101.6 30.9 80.2 111 -5 3 2 405 27
07/27/15 Video View Gregorius, Didi NYY Harrison, Matt TEX 3 Globe Life P... PL 376 99.6 28.7 68.2 81 -3 3 1 375 26
07/28/15 Video View Young, Chris NYY Rodriguez, Wandy TEX 3 Globe Life P... PL 378 99.3 34.8 108.4 118 -5 5 2 375 26
07/28/15 Video View Gardner, Brett NYY Rosales, Adam TEX 9 Globe Life P... PL 409 104.3 32.2 75.4 121 -8 4 2 410 30
07/30/15 Video View McCann, Brian NYY Gallardo, Yovani TEX 3 Globe Life P... PL 413 108.9 24.2 70.7 70 0 2 1 410 30
07/30/15 Video View Teixeira, Mark NYY Kela, Keone TEX 7 Globe Life P... PL 428 105.7 23.5 89.5 78 0 1 1 426 26
07/31/15 Video View Andrus, Elvis TEX Bumgarner, Madison SF 2 Globe Life P... PL 416 105.9 27.4 107.1 89 -2 3 1 414 30
07/31/15 Video View Crawford, Brandon SF Tolleson, Shawn TEX 9 Globe Life P... PL 412 107.0 25.1 72.7 76 0 1 1 410 30
08/03/15 Video View Choo, Shin-Soo TEX McCullers, Lance HOU 1 Globe Life P... PL 400 102.1 29.3 73.5 94 -3 4 1 398 30
05/16/15 Video View Choo, Shin-Soo TEX Salazar, Danny CLE 3 Globe Life P... ND 418 108.1 28.0 69.6 95 -6 2 1 421 30
05/16/15 Video View Kipnis, Jason CLE Feliz, Neftali TEX 9 Globe Life P... ND 425 108.0 27.8 74.0 100 -6 2 2 429 30
05/12/15 Video View Choo, Shin-Soo TEX Volquez, Edinson KC 1 Globe Life P... ND 383 110.0 23.5 53.1 58 0 0 0 383 30
05/12/15 Video View Hosmer, Eric KC Martinez, Nick TEX 2 Globe Life P... ND 429 107.1 30.0 78.7 118 -5 0 2 432 30
05/12/15 Video View Moustakas, Mike KC Claudio, Alexander TEX 7 Globe Life P... ND 441 109.2 25.0 81.3 90 -2 0 1 442 30
04/29/15 Video View Cruz, Nelson SEA Rodriguez, Wandy TEX 2 Globe Life P... ND 447 113.7 28.8 117.2 101 4 1 2 440 30
06/02/15 Video View Gallo, Joey TEX Samardzija, Jeff CHW 3 Globe Life P... ND 430 108.7 28.1 72.7 100 -4 2 1 430 30
06/02/15 Video View Eaton, Adam CHW Lewis, Colby TEX 3 Globe Life P... ND 420 111.0 26.9 62.1 83 -3 2 1 420 30
06/02/15 Video View Choo, Shin-Soo TEX Samardzija, Jeff CHW 4 Globe Life P... ND 437 107.8 26.4 80.2 95 -1 2 1 436 30
06/03/15 Video View Gallo, Joey TEX Duke, Zach CHW 9 Globe Life P... ND 439 114.2 23.3 71.8 74 0 1 1 436 30
06/13/15 Video View Moreland, Mitch TEX Pelfrey, Mike MIN 4 Globe Life P... ND 426 113.0 26.3 58.8 79 0 3 1 423 30
06/13/15 Video View Gallo, Joey TEX Graham, J.R. MIN 4 Globe Life P... ND 471 113.7 26.2 78.9 103 0 3 2 466 30
07/05/15 Video View Pujols, Albert LAA Lewis, Colby TEX 4 Globe Life P... ND 416 111.3 23.7 112.3 69 0 1 0 414 30
07/10/15 Video View Fielder, Prince TEX Kennedy, Ian SD 4 Globe Life P... ND 438 111.4 25.3 72.7 84 -1 2 1 436 30
07/30/15 Video View Choo, Shin-Soo TEX Sabathia, CC NYY 2 Globe Life P... ND 400 104.0 30.9 64.2 97 -2 5 2 395 30
08/01/15 Video View Pence, Hunter SF Dyson, Sam TEX 11 Globe Life P... ND 432 111.4 23.4 104.6 74 0 2 1 430 30
08/02/15 Video View Hamilton, Josh TEX Leake, Mike SF 6 Globe Life P... ND 402 107.4 29.0 58.0 87 -5 4 1 402 30
08/03/15 Video View Valbuena, Luis HOU Lewis, Colby TEX 2 Globe Life P... ND 406 105.3 32.0 66.1 110 -5 5 2 403 30
08/03/15 Video View Castro, Jason HOU Lewis, Colby TEX 4 Globe Life P... ND 395 107.7 36.8 64.1 144 -5 9 4 388 30
08/03/15 Video View Beltre, Adrian TEX Fiers, Mike HOU 5 Globe Life P... ND 419 111.8 24.5 115.3 71 0 2 1 416 30
05/17/15 Video View Moreland, Mitch TEX Carrasco, Carlos CLE 6 Globe Life P... JE/L 412 100.2 31.8 94.1 113 7 2 2 402 14
05/11/15 Video View Beltre, Adrian TEX Duffy, Danny KC 4 Globe Life P... JE 382 100.7 25.5 75.1 72 0 0 1 382 16
05/01/15 Video View Canha, Mark OAK Tolleson, Shawn TEX 8 Globe Life P... JE 423 105.7 24.3 83.8 81 -1 0 1 423 27
05/02/15 Video View Choo, Shin-Soo TEX Abad, Fernando OAK 7 Globe Life P... JE 372 98.9 34.0 74.5 119 -10 1 2 378 24
05/03/15 Video View Vogt, Stephen OAK Gallardo, Yovani TEX 6 Globe Life P... JE 384 101.1 26.1 73.1 74 0 1 0 383 23
05/03/15 Video View Vogt, Stephen OAK Claudio, Alexander TEX 7 Globe Life P... JE 376 106.2 22.8 66.7 57 0 1 1 376 21
04/10/15 Video View Lowrie, Jed HOU Holland, Derek TEX 1 Globe Life P... JE 359 97.0 31.4 119.4 84 2 -1 1 357 21
04/10/15 Video View Rasmus, Colby HOU Feliz, Neftali TEX 9 Globe Life P... JE 369 98.4 28.9 67.0 80 1 0 1 368 22
04/11/15 Video View Gonzalez, Marwin HOU Gallardo, Yovani TEX 3 Globe Life P... JE 378 98.7 28.6 73.5 84 -1 0 1 379 20
04/12/15 Video View Valbuena, Luis HOU Lewis, Colby TEX 2 Globe Life P... JE 353 103.4 23.9 54.5 54 0 0 0 353 23
04/12/15 Video View Conger, Hank HOU Verrett, Logan TEX 14 Globe Life P... JE 377 105.3 22.6 70.5 57 0 0 1 376 16
04/13/15 Video View Freese, David LAA Detwiler, Ross TEX 5 Globe Life P... JE/L 379 95.4 32.4 75.2 98 13 -1 2 366 4
04/14/15 Video View Andrus, Elvis TEX Alvarez, Jose LAA 6 Globe Life P... JE 374 98.2 32.6 112.9 100 4 -2 2 370 26
04/15/15 Video View Corporan, Carlos TEX Santiago, Hector LAA 5 Globe Life P... JE 365 98.3 27.7 67.7 73 0 0 1 364 15
05/29/15 Video View Ramirez, Hanley BOS Ohlendorf, Ross TEX 8 Globe Life P... JE 372 96.9 30.0 72.3 87 1 1 1 369 15
06/23/15 Video View Phegley, Josh OAK Gonzalez, Chi Chi TEX 5 Globe Life P... JE 409 101.6 27.2 97.2 89 -1 2 1 407 22
07/03/15 Video View Rua, Ryan TEX Morin, Mike LAA 9 Globe Life P... JE 372 97.2 32.0 71.0 97 -2 2 2 370 22
07/04/15 Video View Calhoun, Kole LAA Rodriguez, Wandy TEX 4 Globe Life P... JE 381 99.3 28.1 73.4 82 -2 2 1 380 22
07/04/15 Video View Cron, C.J. LAA Patton, Spencer TEX 6 Globe Life P... JE 396 105.4 24.1 106.9 68 0 0 0 396 30
07/05/15 Video View Calhoun, Kole LAA Ranaudo, Anthony TEX 5 Globe Life P... JE 418 103.1 25.5 87.0 86 0 2 1 416 22
07/11/15 Video View Moreland, Mitch TEX Shields, James SD 2 Globe Life P... JE 409 101.2 30.8 86.5 114 -5 3 2 409 19
07/11/15 Video View Solarte, Yangervis SD Tolleson, Shawn TEX 9 Globe Life P... JE 358 97.9 33.8 65.2 105 -12 3 2 365 28
07/27/15 Video View Rodriguez, Alex NYY Harrison, Matt TEX 6 Globe Life P... JE 372 102.4 24.1 69.3 61 0 1 1 370 12
07/29/15 Video View Beltran, Carlos NYY Lewis, Colby TEX 2 Globe Life P... JE 394 103.4 23.8 77.4 67 0 1 0 392 20
07/30/15 Video View Teixeira, Mark NYY Gallardo, Yovani TEX 1 Globe Life P... JE 414 101.7 27.5 93.7 93 -2 3 1 412 18
07/30/15 Video View Hamilton, Josh TEX Sabathia, CC NYY 1 Globe Life P... JE 358 95.9 33.9 62.1 96 -1 5 1 352 22
07/31/15 Video View Beltre, Adrian TEX Bumgarner, Madison SF 1 Globe Life P... JE 390 105.0 23.8 107.9 65 0 1 0 389 26
08/01/15 Video View Belt, Brandon SF Hamels, Cole TEX 3 Globe Life P... JE 417 105.0 22.9 93.6 72 0 0 0 416 19
08/01/15 Video View Posey, Buster SF Hamels, Cole TEX 7 Globe Life P... JE 377 99.6 29.7 114.5 84 -1 3 1 374 28
08/01/15 Video View Belt, Brandon SF Freeman, Sam TEX 11 Globe Life P... JE 406 102.7 26.3 101.5 82 0 1 1 403 28
08/03/15 Video View Correa, Carlos HOU Lewis, Colby TEX 1 Globe Life P... JE 353 98.5 28.2 125.7 67 0 2 1 349 26
07/30/15 Video View Rua, Ryan TEX Sabathia, CC NYY 4 Globe Life P... ITP 276 102.5 13.8 85.1 23 0 -1 0 277 0


About HitTracker | Contact Us
© 2006-2015 HitTrackerOnline